createdAt,value
2023-06-17T00:02:00.412Z,5.23
2023-06-17T00:04:27.550Z,5.10
2023-06-17T00:06:54.637Z,5.30
2023-06-17T00:09:21.522Z,5.00
2023-06-17T00:11:48.909Z,5.17
2023-06-17T00:14:17.590Z,5.13
2023-06-17T00:16:45.018Z,5.10
2023-06-17T00:19:16.857Z,5.43
2023-06-17T00:21:45.202Z,5.87
2023-06-17T00:24:13.441Z,5.57
2023-06-17T00:26:40.425Z,6.30
2023-06-17T00:29:08.130Z,6.47
2023-06-17T00:31:35.462Z,6.23
2023-06-17T00:34:02.383Z,6.33
2023-06-17T00:36:29.265Z,6.73
2023-06-17T00:38:56.213Z,7.30
2023-06-17T00:41:23.323Z,7.37
2023-06-17T00:43:50.472Z,7.20
2023-06-17T00:46:38.791Z,7.10
2023-06-17T00:49:12.932Z,6.40
2023-06-17T00:51:40.057Z,6.30
2023-06-17T00:54:11.006Z,6.10
2023-06-17T00:56:38.963Z,6.10
2023-06-17T00:59:06.524Z,6.27
2023-06-17T01:01:36.469Z,5.57
2023-06-17T01:04:05.838Z,6.77
2023-06-17T01:06:47.123Z,6.17
2023-06-17T01:09:21.523Z,6.00
2023-06-17T01:11:51.769Z,5.90
2023-06-17T01:14:20.087Z,5.87
2023-06-17T01:16:51.956Z,6.53
2023-06-17T01:19:25.892Z,5.90
2023-06-17T01:21:54.604Z,6.57
2023-06-17T01:24:31.539Z,6.33
2023-06-17T01:27:01.024Z,6.13
2023-06-17T01:29:30.495Z,6.13
2023-06-17T01:31:59.013Z,6.17
2023-06-17T01:34:57.405Z,5.97
2023-06-17T01:37:56.172Z,5.80
2023-06-17T01:40:24.656Z,6.43
2023-06-17T01:42:54.117Z,6.23
2023-06-17T01:45:21.825Z,5.50
2023-06-17T01:47:49.060Z,6.10
2023-06-17T01:50:20.905Z,6.63
2023-06-17T01:52:48.168Z,6.07
2023-06-17T01:55:18.412Z,6.47
2023-06-17T01:57:45.384Z,7.10
2023-06-17T02:00:14.270Z,7.30
2023-06-17T02:02:41.501Z,7.80
2023-06-17T02:05:09.976Z,7.60
2023-06-17T02:07:37.509Z,6.80
2023-06-17T02:10:05.182Z,6.67
2023-06-17T02:12:33.421Z,6.30
2023-06-17T02:15:01.006Z,6.60
2023-06-17T02:17:30.571Z,6.67
2023-06-17T02:19:57.503Z,6.90
2023-06-17T02:22:24.441Z,6.70
2023-06-17T02:24:51.392Z,6.93
2023-06-17T02:27:18.308Z,6.67
2023-06-17T02:29:45.937Z,6.27
2023-06-17T02:32:13.272Z,6.80
2023-06-17T02:34:43.377Z,6.40
2023-06-17T02:37:10.969Z,6.23
2023-06-17T02:39:37.920Z,6.80
2023-06-17T02:42:05.389Z,7.30
2023-06-17T02:44:32.339Z,7.53
2023-06-17T02:46:59.312Z,7.43
2023-06-17T02:49:26.656Z,6.93
2023-06-17T02:51:53.639Z,7.20
2023-06-17T02:54:20.844Z,6.57
2023-06-17T02:56:47.734Z,6.90
2023-06-17T02:59:16.320Z,6.50
2023-06-17T03:01:44.284Z,6.40
2023-06-17T03:04:12.005Z,6.10
2023-06-17T03:06:42.221Z,6.23
2023-06-17T03:09:09.686Z,6.10
2023-06-17T03:11:40.707Z,6.43
2023-06-17T03:14:08.833Z,6.30
2023-06-17T03:16:35.891Z,6.50
2023-06-17T03:19:03.252Z,6.47
2023-06-17T03:21:31.817Z,6.60
2023-06-17T03:23:59.812Z,6.37
2023-06-17T03:26:27.163Z,6.10
2023-06-17T03:28:54.399Z,6.20
2023-06-17T03:31:22.746Z,6.43
2023-06-17T03:33:53.026Z,6.53
2023-06-17T03:36:20.792Z,6.63
2023-06-17T03:38:47.634Z,6.27
2023-06-17T03:41:14.521Z,6.33
2023-06-17T03:43:41.640Z,6.27
2023-06-17T03:46:08.725Z,6.00
2023-06-17T03:48:35.623Z,5.53
2023-06-17T03:51:03.622Z,5.33
2023-06-17T03:53:31.138Z,5.60
2023-06-17T03:55:58.018Z,6.07
2023-06-17T03:58:25.700Z,5.63
2023-06-17T04:00:53.057Z,6.00
2023-06-17T04:03:20.458Z,5.80
2023-06-17T04:05:47.437Z,6.63
2023-06-17T04:08:14.411Z,6.00
2023-06-17T04:10:41.339Z,6.10
2023-06-17T04:13:08.341Z,5.87
2023-06-17T04:15:35.248Z,5.70
2023-06-17T04:18:03.696Z,6.37
2023-06-17T04:20:30.764Z,6.00
2023-06-17T04:22:57.662Z,5.80
2023-06-17T04:25:24.579Z,6.20
2023-06-17T04:27:54.481Z,6.43
2023-06-17T04:30:21.931Z,6.30
2023-06-17T04:32:51.230Z,7.10
2023-06-17T04:35:19.986Z,6.77
2023-06-17T04:37:54.334Z,6.53
2023-06-17T04:40:23.311Z,6.83
2023-06-17T04:42:52.433Z,6.57
2023-06-17T04:45:19.477Z,6.40
2023-06-17T04:47:46.978Z,6.73
2023-06-17T04:50:18.340Z,6.77
2023-06-17T04:52:48.795Z,6.90
2023-06-17T04:55:15.744Z,7.77
2023-06-17T04:57:43.604Z,8.17
2023-06-17T05:00:11.921Z,7.77
2023-06-17T05:02:41.006Z,8.97
2023-06-17T05:05:08.849Z,9.30
2023-06-17T05:07:36.041Z,8.80
2023-06-17T05:10:03.327Z,8.63
2023-06-17T05:12:30.229Z,9.00
2023-06-17T05:14:57.162Z,9.83
2023-06-17T05:17:24.270Z,8.67
2023-06-17T05:19:51.279Z,8.87
2023-06-17T05:22:18.178Z,8.97
2023-06-17T05:24:45.386Z,8.93
2023-06-17T05:27:12.408Z,8.83
2023-06-17T05:29:40.399Z,9.37
2023-06-17T05:32:07.974Z,8.53
2023-06-17T05:34:35.124Z,8.70
2023-06-17T05:37:02.236Z,8.90
2023-06-17T05:39:29.187Z,9.17
2023-06-17T05:41:56.053Z,7.87
2023-06-17T05:44:23.076Z,8.20
2023-06-17T05:46:50.077Z,8.07
2023-06-17T05:49:17.447Z,7.97
2023-06-17T05:51:44.441Z,7.73
2023-06-17T05:54:11.321Z,8.20
2023-06-17T05:56:38.160Z,7.27
2023-06-17T05:59:05.072Z,7.57
2023-06-17T06:01:32.031Z,8.30
2023-06-17T06:03:59.038Z,7.27
2023-06-17T06:06:25.992Z,7.50
2023-06-17T06:08:52.960Z,7.33
2023-06-17T06:11:19.903Z,7.53
2023-06-17T06:13:47.188Z,6.90
2023-06-17T06:16:14.089Z,6.90
2023-06-17T06:18:41.013Z,7.83
2023-06-17T06:21:07.903Z,7.20
2023-06-17T06:23:36.989Z,7.13
2023-06-17T06:26:03.947Z,6.83
2023-06-17T06:28:30.956Z,6.93
2023-06-17T06:30:57.823Z,7.90
2023-06-17T06:33:24.737Z,7.07
2023-06-17T06:35:51.687Z,6.17
2023-06-17T06:38:18.665Z,7.10
2023-06-17T06:40:45.561Z,7.07
2023-06-17T06:43:12.460Z,6.70
2023-06-17T06:45:39.400Z,6.50
2023-06-17T06:48:06.447Z,6.40
2023-06-17T06:50:34.457Z,6.60
2023-06-17T06:53:01.536Z,5.70
2023-06-17T06:55:29.731Z,6.47
2023-06-17T06:57:56.663Z,6.03
2023-06-17T07:00:23.713Z,5.80
2023-06-17T07:02:50.827Z,6.50
2023-06-17T07:05:17.770Z,5.20
2023-06-17T07:07:45.574Z,5.30
2023-06-17T07:10:12.537Z,5.70
2023-06-17T07:12:39.461Z,5.80
2023-06-17T07:15:07.215Z,5.20
2023-06-17T07:17:34.248Z,5.13
2023-06-17T07:20:01.211Z,4.80
2023-06-17T07:22:28.087Z,5.07
2023-06-17T07:24:55.091Z,4.83
2023-06-17T07:27:21.946Z,5.00
2023-06-17T07:29:48.864Z,5.00
2023-06-17T07:32:15.765Z,4.80
2023-06-17T07:34:42.672Z,4.80
2023-06-17T07:37:09.946Z,5.00
2023-06-17T07:39:36.874Z,4.73
2023-06-17T07:42:04.042Z,5.70
2023-06-17T07:44:32.949Z,4.83
2023-06-17T07:46:59.851Z,5.33
2023-06-17T07:49:26.805Z,5.30
2023-06-17T07:51:53.704Z,4.80
2023-06-17T07:54:20.625Z,4.80
2023-06-17T07:56:47.491Z,4.63
2023-06-17T07:59:14.424Z,4.80
2023-06-17T08:01:41.354Z,4.50
2023-06-17T08:04:08.405Z,4.33
2023-06-17T08:06:36.513Z,4.07
2023-06-17T08:09:04.215Z,4.63
2023-06-17T08:11:31.108Z,4.57
2023-06-17T08:13:58.069Z,4.60
2023-06-17T08:16:25.008Z,4.82
2023-06-17T08:18:52.147Z,4.17
2023-06-17T08:21:18.985Z,4.60
2023-06-17T08:23:46.349Z,4.60
2023-06-17T08:26:13.515Z,4.53
2023-06-17T08:28:40.680Z,4.80
2023-06-17T08:31:07.595Z,5.18
2023-06-17T08:33:34.804Z,4.65
2023-06-17T08:36:01.808Z,4.18
2023-06-17T08:38:28.660Z,4.35
2023-06-17T08:40:55.632Z,4.45
2023-06-17T08:43:23.756Z,4.95
2023-06-17T08:45:51.846Z,4.45
2023-06-17T08:48:19.354Z,5.18
2023-06-17T08:50:48.607Z,5.13
2023-06-17T08:53:16.068Z,4.35
2023-06-17T08:55:43.958Z,4.78
2023-06-17T08:58:11.635Z,4.82
2023-06-17T09:00:38.672Z,4.90
2023-06-17T09:03:08.585Z,3.88
2023-06-17T09:05:36.752Z,4.18
2023-06-17T09:08:04.036Z,4.25
2023-06-17T09:10:42.482Z,4.37
2023-06-17T09:13:09.718Z,4.65
2023-06-17T09:15:41.594Z,4.10
2023-06-17T09:18:11.930Z,4.53
2023-06-17T09:20:38.895Z,4.65
2023-06-17T09:23:05.790Z,4.47
2023-06-17T09:25:36.416Z,4.30
2023-06-17T09:28:15.996Z,4.35
2023-06-17T09:30:44.896Z,4.38
2023-06-17T09:33:22.997Z,4.18
2023-06-17T09:36:05.809Z,4.75
2023-06-17T09:38:33.585Z,4.65
2023-06-17T09:41:00.987Z,4.53
2023-06-17T09:43:29.429Z,4.45
2023-06-17T09:46:01.481Z,5.00
2023-06-17T09:48:33.487Z,4.50
2023-06-17T09:51:01.433Z,4.15
2023-06-17T09:53:30.781Z,4.63
2023-06-17T09:56:00.880Z,4.15
2023-06-17T09:58:32.571Z,4.90
2023-06-17T10:01:07.089Z,4.40
2023-06-17T10:03:35.007Z,4.57
2023-06-17T10:06:10.553Z,4.50
2023-06-17T10:08:40.843Z,4.30
2023-06-17T10:11:07.848Z,4.88
2023-06-17T10:13:38.030Z,4.47
2023-06-17T10:16:12.725Z,4.25
2023-06-17T10:18:42.357Z,4.82
2023-06-17T10:21:12.802Z,4.93
2023-06-17T10:23:42.590Z,4.32
2023-06-17T10:26:12.779Z,5.10
2023-06-17T10:28:54.488Z,5.10
2023-06-17T10:31:27.514Z,4.60
2023-06-17T10:33:56.404Z,8.45
2023-06-17T10:36:25.208Z,5.20
2023-06-17T10:39:05.615Z,9.63
2023-06-17T10:41:41.592Z,4.50
2023-06-17T10:44:36.688Z,4.60
2023-06-17T10:47:16.664Z,4.75
2023-06-17T10:49:43.822Z,4.75
2023-06-17T10:52:15.446Z,4.25
2023-06-17T10:54:55.315Z,4.95
2023-06-17T10:57:36.830Z,4.75
2023-06-17T11:00:13.109Z,4.43
2023-06-17T11:02:40.915Z,4.88
2023-06-17T11:05:09.373Z,4.70
2023-06-17T11:07:37.494Z,5.10
2023-06-17T11:10:05.406Z,4.25
2023-06-17T11:12:33.264Z,4.72
2023-06-17T11:15:01.433Z,4.60
2023-06-17T11:17:28.746Z,4.75
2023-06-17T11:19:56.340Z,4.80
2023-06-17T11:22:24.026Z,5.00
2023-06-17T11:24:50.945Z,4.65
2023-06-17T11:27:18.585Z,4.45
2023-06-17T11:29:46.026Z,4.55
2023-06-17T11:32:13.647Z,4.55
2023-06-17T11:34:42.817Z,4.88
2023-06-17T11:37:12.413Z,4.68
2023-06-17T11:39:40.214Z,4.75
2023-06-17T11:42:09.770Z,4.78
2023-06-17T11:44:37.148Z,4.88
2023-06-17T11:47:09.899Z,4.90
2023-06-17T11:49:41.646Z,5.00
2023-06-17T11:52:10.591Z,5.32
2023-06-17T11:54:49.992Z,5.25
2023-06-17T11:57:22.374Z,4.70
2023-06-17T11:59:51.113Z,4.78
2023-06-17T12:02:18.593Z,4.68
2023-06-17T12:04:47.258Z,5.10
2023-06-17T12:07:14.853Z,5.43
2023-06-17T12:09:55.566Z,4.57
2023-06-17T12:12:34.560Z,4.40
2023-06-17T12:15:14.813Z,4.78
2023-06-17T12:17:53.151Z,4.70
2023-06-17T12:20:22.353Z,4.18
2023-06-17T12:22:51.854Z,5.07
2023-06-17T12:25:19.518Z,4.88
2023-06-17T12:27:47.144Z,4.65
2023-06-17T12:30:14.918Z,5.10
2023-06-17T12:32:42.249Z,4.63
2023-06-17T12:35:12.553Z,4.93
2023-06-17T12:37:43.573Z,4.78
2023-06-17T12:40:11.262Z,5.05
2023-06-17T12:42:38.317Z,4.50
2023-06-17T12:45:07.313Z,4.90
2023-06-17T12:47:35.136Z,4.25
2023-06-17T12:50:02.257Z,4.90
2023-06-17T12:52:29.328Z,4.18
2023-06-17T12:55:00.452Z,4.25
2023-06-17T12:57:28.363Z,4.65
2023-06-17T12:59:55.741Z,4.43
2023-06-17T13:02:23.058Z,4.70
2023-06-17T13:04:50.531Z,4.47
2023-06-17T13:07:17.977Z,4.78
2023-06-17T13:09:44.919Z,4.60
2023-06-17T13:12:12.393Z,4.90
2023-06-17T13:14:39.391Z,4.32
2023-06-17T13:17:07.142Z,4.63
2023-06-17T13:19:34.179Z,4.90
2023-06-17T13:22:01.121Z,5.03
2023-06-17T13:24:28.330Z,4.50
2023-06-17T13:26:55.962Z,4.20
2023-06-17T13:29:24.179Z,3.85
2023-06-17T13:31:51.404Z,4.38
2023-06-17T13:34:19.218Z,4.22
2023-06-17T13:36:47.358Z,4.82
2023-06-17T13:39:15.077Z,4.38
2023-06-17T13:41:42.499Z,4.63
2023-06-17T13:44:09.892Z,4.25
2023-06-17T13:46:37.150Z,4.43
2023-06-17T13:49:04.605Z,5.10
2023-06-17T13:51:32.527Z,4.70
2023-06-17T13:54:01.834Z,4.70
2023-06-17T13:56:29.159Z,4.70
2023-06-17T13:58:56.721Z,4.70
2023-06-17T14:01:24.837Z,4.95
2023-06-17T14:03:52.377Z,4.97
2023-06-17T14:06:20.844Z,4.90
2023-06-17T14:08:48.067Z,4.75
2023-06-17T14:11:15.016Z,5.20
2023-06-17T14:13:43.926Z,5.15
2023-06-17T14:16:12.166Z,4.85
2023-06-17T14:18:39.277Z,4.43
2023-06-17T14:21:06.293Z,4.68
2023-06-17T14:23:33.277Z,4.85
2023-06-17T14:26:01.040Z,5.13
2023-06-17T14:28:27.956Z,4.85
2023-06-17T14:30:54.849Z,4.68
2023-06-17T14:33:21.727Z,4.63
2023-06-17T14:35:48.607Z,4.90
2023-06-17T14:38:15.526Z,4.88
2023-06-17T14:40:42.413Z,5.00
2023-06-17T14:43:09.359Z,5.10
2023-06-17T14:45:36.355Z,4.93
2023-06-17T14:48:04.272Z,4.93
2023-06-17T14:50:31.264Z,4.93
2023-06-17T14:52:58.202Z,4.90
2023-06-17T14:55:25.084Z,4.80
2023-06-17T14:57:52.253Z,4.82
2023-06-17T15:00:20.791Z,4.70
2023-06-17T15:02:56.169Z,5.25
2023-06-17T15:05:25.196Z,4.63
2023-06-17T15:07:53.109Z,4.88
2023-06-17T15:10:20.183Z,5.10
2023-06-17T15:12:47.471Z,4.47
2023-06-17T15:15:14.994Z,4.75
2023-06-17T15:17:42.609Z,5.07
2023-06-17T15:20:10.963Z,5.15
2023-06-17T15:22:39.366Z,5.15
2023-06-17T15:25:08.057Z,4.88
2023-06-17T15:27:35.016Z,4.82
2023-06-17T15:30:02.186Z,4.35
2023-06-17T15:32:29.161Z,5.05
2023-06-17T15:34:56.589Z,5.30
2023-06-17T15:37:23.581Z,5.00
2023-06-17T15:39:50.933Z,5.10
2023-06-17T15:42:17.898Z,5.13
2023-06-17T15:44:44.787Z,4.85
2023-06-17T15:47:11.789Z,4.60
2023-06-17T15:49:38.811Z,5.10
2023-06-17T15:52:06.607Z,4.85
2023-06-17T15:54:33.470Z,4.65
2023-06-17T15:57:02.451Z,4.30
2023-06-17T15:59:30.041Z,4.60
2023-06-17T16:01:57.057Z,4.75
2023-06-17T16:04:41.255Z,4.57
2023-06-17T16:07:13.979Z,5.00
2023-06-17T16:09:45.552Z,5.00
2023-06-17T16:12:13.039Z,4.30
2023-06-17T16:14:40.029Z,4.53
2023-06-17T16:17:09.311Z,4.72
2023-06-17T16:19:38.229Z,4.55
2023-06-17T16:22:10.997Z,4.78
2023-06-17T16:24:39.371Z,4.38
2023-06-17T16:27:06.556Z,4.70
2023-06-17T16:29:33.524Z,4.57
2023-06-17T16:32:00.502Z,4.80
2023-06-17T16:34:27.458Z,4.85
2023-06-17T16:36:54.346Z,4.80
2023-06-17T16:39:21.456Z,4.88
2023-06-17T16:41:48.468Z,4.60
2023-06-17T16:44:15.436Z,4.78
2023-06-17T16:46:42.374Z,4.75
2023-06-17T16:49:09.301Z,4.97
2023-06-17T16:51:36.221Z,4.38
2023-06-17T16:54:06.451Z,5.22
2023-06-17T16:56:33.749Z,4.80
2023-06-17T16:59:02.066Z,4.90
2023-06-17T17:01:29.808Z,5.00
2023-06-17T17:04:01.176Z,4.63
2023-06-17T17:06:28.118Z,5.00
2023-06-17T17:08:55.241Z,5.20
2023-06-17T17:11:22.219Z,4.50
2023-06-17T17:13:50.027Z,4.30
2023-06-17T17:16:18.510Z,4.90
2023-06-17T17:18:45.901Z,4.83
2023-06-17T17:21:13.053Z,4.63
2023-06-17T17:23:44.004Z,5.63
2023-06-17T17:26:13.189Z,5.00
2023-06-17T17:28:43.233Z,4.70
2023-06-17T17:31:10.376Z,5.20
2023-06-17T17:33:37.899Z,5.00
2023-06-17T17:36:05.176Z,5.20
2023-06-17T17:38:32.430Z,4.97
2023-06-17T17:40:59.329Z,4.93
2023-06-17T17:43:27.179Z,4.67
2023-06-17T17:45:56.334Z,4.60
2023-06-17T17:48:23.346Z,4.90
2023-06-17T17:50:51.408Z,4.73
2023-06-17T17:53:18.459Z,4.87
2023-06-17T17:55:45.425Z,4.60
2023-06-17T17:58:12.293Z,4.70
2023-06-17T18:00:39.270Z,4.77
2023-06-17T18:03:06.292Z,4.33
2023-06-17T18:05:33.672Z,4.30
2023-06-17T18:08:00.564Z,5.00
2023-06-17T18:10:27.473Z,4.47
2023-06-17T18:12:54.353Z,4.77
2023-06-17T18:15:21.443Z,4.47
2023-06-17T18:17:48.328Z,5.00
2023-06-17T18:20:15.365Z,4.60
2023-06-17T18:22:42.279Z,5.20
2023-06-17T18:25:09.988Z,4.57
2023-06-17T18:27:38.426Z,5.00
2023-06-17T18:30:06.416Z,5.00
2023-06-17T18:32:33.352Z,4.80
2023-06-17T18:35:00.362Z,4.53
2023-06-17T18:37:27.324Z,4.90
2023-06-17T18:39:54.365Z,4.50
2023-06-17T18:42:23.368Z,4.97
2023-06-17T18:44:50.230Z,4.80
2023-06-17T18:47:17.139Z,5.10
2023-06-17T18:49:43.989Z,4.90
2023-06-17T18:52:10.939Z,5.00
2023-06-17T18:54:37.816Z,5.13
2023-06-17T18:57:05.578Z,5.07
2023-06-17T18:59:32.726Z,4.73
2023-06-17T19:01:59.661Z,4.90
2023-06-17T19:04:26.571Z,5.00
2023-06-17T19:06:53.467Z,5.20
2023-06-17T19:09:20.575Z,4.90
2023-06-17T19:11:47.538Z,4.90
2023-06-17T19:14:14.510Z,5.10
2023-06-17T19:16:42.867Z,4.87
2023-06-17T19:19:09.898Z,4.93
2023-06-17T19:21:36.779Z,4.63
2023-06-17T19:24:04.069Z,4.77
2023-06-17T19:26:31.049Z,5.30
2023-06-17T19:28:57.971Z,5.00
2023-06-17T19:31:25.912Z,5.17
2023-06-17T19:33:53.916Z,4.80
2023-06-17T19:36:20.863Z,4.70
2023-06-17T19:38:47.768Z,5.20
2023-06-17T19:41:14.652Z,5.30
2023-06-17T19:43:41.541Z,5.17
2023-06-17T19:46:09.220Z,4.70
2023-06-17T19:48:36.720Z,4.97
2023-06-17T19:51:03.647Z,4.70
2023-06-17T19:53:31.420Z,5.10
2023-06-17T19:55:58.566Z,5.20
2023-06-17T19:58:25.569Z,4.67
2023-06-17T20:00:52.569Z,5.10
2023-06-17T20:03:19.615Z,5.40
2023-06-17T20:05:47.098Z,4.93
2023-06-17T20:08:14.668Z,5.30
2023-06-17T20:10:42.570Z,5.23
2023-06-17T20:13:09.907Z,4.90
2023-06-17T20:15:38.178Z,5.30
2023-06-17T20:18:05.571Z,5.50
2023-06-17T20:20:33.509Z,5.20
2023-06-17T20:23:00.580Z,5.10
2023-06-17T20:25:27.535Z,5.13
2023-06-17T20:27:54.402Z,4.93
2023-06-17T20:30:21.919Z,5.53
2023-06-17T20:32:49.085Z,5.30
2023-06-17T20:35:16.105Z,5.53
2023-06-17T20:37:44.592Z,5.73
2023-06-17T20:40:12.215Z,5.03
2023-06-17T20:42:39.195Z,5.73
2023-06-17T20:45:08.616Z,5.50
2023-06-17T20:47:36.299Z,5.37
2023-06-17T20:50:03.727Z,4.90
2023-06-17T20:52:30.795Z,5.50
2023-06-17T20:54:57.750Z,5.10
2023-06-17T20:57:24.641Z,5.07
2023-06-17T20:59:53.470Z,5.43
2023-06-17T21:02:20.688Z,5.37
2023-06-17T21:04:47.789Z,5.40
2023-06-17T21:07:14.725Z,5.60
2023-06-17T21:09:42.388Z,5.50
2023-06-17T21:12:09.586Z,5.30
2023-06-17T21:14:36.719Z,5.40
2023-06-17T21:17:03.777Z,5.60
2023-06-17T21:19:30.977Z,5.83
2023-06-17T21:21:57.876Z,5.73
2023-06-17T21:24:24.835Z,5.30
2023-06-17T21:26:51.743Z,5.80
2023-06-17T21:29:18.663Z,5.87
2023-06-17T21:31:45.631Z,5.87
2023-06-17T21:34:12.723Z,5.57
2023-06-17T21:36:40.448Z,5.83
2023-06-17T21:39:07.381Z,5.70
2023-06-17T21:41:34.272Z,5.67
2023-06-17T21:44:01.188Z,5.80
2023-06-17T21:46:31.032Z,5.47
2023-06-17T21:48:58.344Z,5.60
2023-06-17T21:51:25.316Z,6.10
2023-06-17T21:53:52.266Z,5.87
2023-06-17T21:56:19.156Z,6.13
2023-06-17T21:58:46.390Z,5.93
2023-06-17T22:01:13.344Z,6.40
2023-06-17T22:03:41.695Z,6.30
2023-06-17T22:06:09.056Z,6.67
2023-06-17T22:08:42.880Z,6.87
2023-06-17T22:11:12.142Z,6.00
2023-06-17T22:13:39.626Z,6.00
2023-06-17T22:16:06.870Z,6.10
2023-06-17T22:18:34.005Z,6.33
2023-06-17T22:21:01.054Z,6.10
2023-06-17T22:23:27.956Z,6.43
2023-06-17T22:25:56.615Z,6.20
2023-06-17T22:28:23.727Z,6.47
2023-06-17T22:30:50.929Z,6.23
2023-06-17T22:33:17.856Z,6.43
2023-06-17T22:35:44.725Z,6.43
2023-06-17T22:38:13.856Z,6.23
2023-06-17T22:40:40.808Z,6.07
2023-06-17T22:43:07.865Z,6.23
2023-06-17T22:45:34.888Z,5.83
2023-06-17T22:48:03.438Z,6.20
2023-06-17T22:50:30.878Z,6.00
2023-06-17T22:52:57.732Z,6.17
2023-06-17T22:55:24.619Z,6.27
2023-06-17T22:57:51.766Z,5.73
2023-06-17T23:00:19.143Z,6.23
2023-06-17T23:02:46.462Z,6.50
2023-06-17T23:05:13.478Z,5.93
2023-06-17T23:07:40.391Z,6.20
2023-06-17T23:10:07.940Z,6.20
2023-06-17T23:12:34.874Z,6.63
2023-06-17T23:15:01.965Z,6.30
2023-06-17T23:17:28.992Z,6.40
2023-06-17T23:20:00.455Z,6.10
2023-06-17T23:22:28.174Z,6.23
2023-06-17T23:24:56.177Z,6.67
2023-06-17T23:27:27.880Z,6.57
2023-06-17T23:29:56.051Z,6.43
2023-06-17T23:32:24.174Z,6.43
2023-06-17T23:34:54.734Z,6.27
2023-06-17T23:37:21.908Z,6.47
2023-06-17T23:39:48.986Z,6.37
2023-06-17T23:42:15.911Z,6.87
2023-06-17T23:44:43.350Z,6.23
2023-06-17T23:47:11.276Z,6.53
2023-06-17T23:49:40.811Z,6.77
2023-06-17T23:52:11.646Z,6.47
2023-06-17T23:54:38.753Z,6.53
2023-06-17T23:57:06.120Z,6.10
2023-06-17T23:59:33.404Z,6.57
